Time;durP1;ratioP1;P1;durP2;ratioP2;P2;SDS_P1;SDS_P2;PMS_P1;PMS_P2;Temp;Humidity;BMP_temperature;BMP_pressure;BME280_temperature;BME280_humidity;BME280_pressure;Samples;Min_cycle;Max_cycle;Signal;HPM_P1;HPM_P2
2021/07/12 00:00:10;;;;;;;5.38;3.17;;;;;;;11.79;98.31;95482.06;5063808;28;20037;-78
2021/07/12 00:02:55;;;;;;;5.15;3.20;;;;;;;11.89;98.05;95484.59;5052379;28;20052;-77
2021/07/12 00:05:24;;;;;;;4.43;3.10;;;;;;;11.84;97.65;95471.47;5059755;28;20033;-77
2021/07/12 00:07:50;;;;;;;6.18;3.30;;;;;;;11.67;98.11;95481.66;5060244;28;20063;-79
2021/07/12 00:10:19;;;;;;;7.65;3.08;;;;;;;11.65;98.50;95481.13;5047103;28;20033;-77
2021/07/12 00:12:46;;;;;;;6.90;2.97;;;;;;;11.78;97.61;95472.59;5076677;28;20041;-78
2021/07/12 00:15:16;;;;;;;5.57;3.00;;;;;;;11.85;97.24;95467.78;5059814;28;20049;-77
2021/07/12 00:17:42;;;;;;;7.35;3.25;;;;;;;11.82;97.10;95468.31;5066282;28;20064;-77
2021/07/12 00:20:09;;;;;;;5.85;3.00;;;;;;;11.86;96.46;95464.06;5030603;28;20033;-78
2021/07/12 00:22:35;;;;;;;7.13;3.40;;;;;;;11.83;96.45;95463.84;5057807;28;20120;-77
2021/07/12 00:25:01;;;;;;;6.03;3.00;;;;;;;11.77;96.83;95465.75;5060866;28;20041;-78
2021/07/12 00:27:27;;;;;;;6.05;3.22;;;;;;;11.71;97.08;95461.56;5060467;28;20037;-79
2021/07/12 00:29:53;;;;;;;4.20;2.90;;;;;;;11.50;97.54;95455.69;5065555;28;20106;-77
2021/07/12 00:32:18;;;;;;;10.63;3.67;;;;;;;11.34;98.53;95452.41;5050991;28;20077;-77
2021/07/12 00:34:44;;;;;;;9.07;3.45;;;;;;;11.27;99.30;95448.22;5059286;28;20052;-77
2021/07/12 00:37:10;;;;;;;5.28;3.20;;;;;;;11.14;98.67;95451.47;5065741;28;20460;-77
2021/07/12 00:39:35;;;;;;;11.40;3.20;;;;;;;11.42;98.19;95443.88;5063503;28;20479;-77
2021/07/12 00:42:01;;;;;;;6.40;3.10;;;;;;;11.47;97.63;95440.44;5058711;28;20041;-77
2021/07/12 00:44:27;;;;;;;6.95;2.88;;;;;;;11.32;98.45;95443.97;5059420;28;20104;-77
2021/07/12 00:46:54;;;;;;;8.25;3.15;;;;;;;11.29;98.42;95444.53;5058797;28;20036;-78
2021/07/12 00:49:19;;;;;;;6.72;3.47;;;;;;;11.19;98.91;95440.91;5064171;28;20456;-78
2021/07/12 00:51:45;;;;;;;7.60;3.00;;;;;;;11.23;97.97;95436.66;5046960;28;20314;-78
2021/07/12 00:54:11;;;;;;;7.28;2.75;;;;;;;11.20;97.59;95431.94;5058324;28;20045;-77
2021/07/12 00:56:37;;;;;;;6.00;2.95;;;;;;;11.35;97.17;95438.13;5058855;28;20041;-78
2021/07/12 00:59:03;;;;;;;6.35;2.78;;;;;;;11.22;98.05;95435.09;5058029;28;20041;-78
2021/07/12 01:01:29;;;;;;;3.92;2.75;;;;;;;11.09;98.01;95425.97;5054445;28;20048;-77
2021/07/12 01:03:57;;;;;;;7.57;2.80;;;;;;;11.24;97.86;95426.91;5062240;28;20038;-77
2021/07/12 01:06:24;;;;;;;5.60;3.10;;;;;;;11.13;97.43;95423.56;5040553;28;20115;-77
2021/07/12 01:08:50;;;;;;;5.10;3.03;;;;;;;11.06;98.43;95428.34;5058437;28;20055;-77
2021/07/12 01:11:43;;;;;;;9.15;2.95;;;;;;;10.98;98.24;95428.94;5055883;28;20049;-77
2021/07/12 01:14:46;;;;;;;8.63;3.00;;;;;;;11.01;98.34;95423.13;5057858;28;20060;-78
2021/07/12 01:17:38;;;;;;;7.18;3.30;;;;;;;11.00;97.97;95429.44;5057460;28;20045;-77
2021/07/12 01:20:33;;;;;;;7.40;2.85;;;;;;;10.77;98.74;95429.03;5058610;28;20041;-78
2021/07/12 01:23:30;;;;;;;5.00;3.03;;;;;;;10.64;100.00;95424.38;5060545;28;20037;-77
2021/07/12 01:26:26;;;;;;;6.22;3.03;;;;;;;10.96;99.62;95431.03;5056106;28;20238;-77
2021/07/12 01:29:12;;;;;;;9.40;3.03;;;;;;;10.97;99.81;95427.38;5057033;28;20048;-77
2021/07/12 01:32:14;;;;;;;6.20;3.40;;;;;;;10.88;100.00;95425.28;5061623;28;20049;-77
2021/07/12 01:35:08;;;;;;;5.97;3.55;;;;;;;10.87;100.00;95418.44;5050784;28;20075;-77
2021/07/12 01:37:55;;;;;;;5.32;3.15;;;;;;;11.00;100.00;95422.31;5036503;28;20051;-78
2021/07/12 01:40:40;;;;;;;5.20;2.97;;;;;;;11.10;98.36;95410.94;5057633;28;20048;-79
2021/07/12 01:43:50;;;;;;;5.47;2.90;;;;;;;11.06;98.33;95407.28;5055648;28;20060;-78
2021/07/12 01:46:26;;;;;;;7.45;3.10;;;;;;;10.86;99.05;95405.56;4982651;28;20074;-78
2021/07/12 01:49:04;;;;;;;5.07;3.00;;;;;;;10.85;98.11;95404.78;5055411;28;20080;-78
2021/07/12 01:51:43;;;;;;;4.20;2.80;;;;;;;10.86;98.50;95403.72;5057374;28;20052;-78
2021/07/12 01:54:29;;;;;;;4.75;3.10;;;;;;;10.85;98.82;95393.47;5060174;28;20120;-78
2021/07/12 01:56:59;;;;;;;5.93;2.80;;;;;;;10.99;97.26;95388.38;5041245;28;20049;-78
2021/07/12 01:59:51;;;;;;;5.40;3.13;;;;;;;10.87;98.85;95386.84;5059950;28;20032;-78
2021/07/12 02:02:19;;;;;;;8.25;3.05;;;;;;;10.81;98.86;95377.44;5066690;28;20041;-78
2021/07/12 02:04:47;;;;;;;5.50;2.70;;;;;;;10.89;98.30;95379.50;5058331;28;20759;-77
2021/07/12 02:07:15;;;;;;;4.32;2.80;;;;;;;10.98;98.06;95360.47;5058788;28;20044;-78
2021/07/12 02:09:42;;;;;;;4.35;2.67;;;;;;;10.84;98.30;95371.63;5055862;28;20041;-79
2021/07/12 02:12:09;;;;;;;5.57;2.67;;;;;;;10.95;97.66;95368.91;5059465;28;20041;-78
2021/07/12 02:14:34;;;;;;;3.78;2.72;;;;;;;10.79;98.44;95374.31;5060096;28;20560;-77
2021/07/12 02:17:03;;;;;;;4.82;2.92;;;;;;;10.67;99.84;95366.72;5057404;28;20037;-78
2021/07/12 02:19:31;;;;;;;4.90;3.20;;;;;;;10.68;98.89;95362.25;5059239;28;20062;-77
2021/07/12 02:21:59;;;;;;;4.85;2.53;;;;;;;10.73;98.00;95359.59;5052225;28;20489;-77
2021/07/12 02:24:26;;;;;;;4.55;2.60;;;;;;;10.64;97.58;95355.97;5059698;28;20168;-78
2021/07/12 02:26:53;;;;;;;4.25;2.83;;;;;;;10.47;98.59;95354.47;5065969;28;20037;-78
2021/07/12 02:29:22;;;;;;;8.55;3.15;;;;;;;10.36;99.49;95350.34;5055818;28;20040;-78
2021/07/12 02:31:50;;;;;;;7.75;2.80;;;;;;;10.42;98.95;95344.00;5056007;28;20048;-78
2021/07/12 02:34:16;;;;;;;4.07;2.60;;;;;;;10.53;98.25;95349.97;5056434;28;20119;-78
2021/07/12 02:36:43;;;;;;;6.18;2.72;;;;;;;10.42;98.15;95344.00;5066893;28;20071;-78
2021/07/12 02:39:11;;;;;;;5.88;2.85;;;;;;;10.34;99.24;95334.03;5056718;28;20378;-78
2021/07/12 02:41:37;;;;;;;4.80;2.88;;;;;;;10.49;98.69;95344.47;5056737;28;20041;-78
2021/07/12 02:44:05;;;;;;;3.72;2.47;;;;;;;10.67;97.96;95340.41;5057802;28;20033;-77
2021/07/12 02:46:31;;;;;;;4.95;2.50;;;;;;;10.65;97.75;95344.38;5054420;28;20499;-78
2021/07/12 02:48:58;;;;;;;4.05;2.78;;;;;;;10.63;98.17;95349.94;5042816;28;20069;-77
2021/07/12 02:51:45;;;;;;;5.10;2.95;;;;;;;10.47;97.98;95345.81;5039617;28;20047;-76
2021/07/12 02:54:13;;;;;;;5.38;2.90;;;;;;;10.46;98.38;95347.66;5060293;28;20037;-77
2021/07/12 02:56:39;;;;;;;4.85;2.40;;;;;;;10.26;98.09;95340.63;5058478;28;20037;-79
2021/07/12 02:59:04;;;;;;;5.55;2.60;;;;;;;10.37;98.40;95357.16;5058414;28;20056;-77
2021/07/12 03:01:30;;;;;;;5.32;2.58;;;;;;;10.36;98.09;95358.25;5046861;28;20106;-78
2021/07/12 03:03:56;;;;;;;7.30;2.60;;;;;;;10.38;97.96;95348.22;5039098;28;20044;-78
2021/07/12 03:06:27;;;;;;;4.50;2.50;;;;;;;10.47;96.48;95357.09;5065775;28;20049;-77
2021/07/12 03:09:02;;;;;;;6.82;2.80;;;;;;;10.41;97.31;95358.19;5049990;28;20071;-77
2021/07/12 03:11:34;;;;;;;;;;;;;;;10.23;98.39;95357.72;5060731;28;20056;-78
2021/07/12 03:14:09;;;;;;;5.28;2.75;;;;;;;10.00;98.31;95363.63;5057158;28;20020;-77
2021/07/12 03:16:37;;;;;;;4.88;2.40;;;;;;;9.94;99.32;95359.44;5054523;28;20043;-77
2021/07/12 03:19:06;;;;;;;7.22;2.63;;;;;;;10.05;99.08;95355.72;5054617;28;20037;-77
2021/07/12 03:21:32;;;;;;;5.40;2.42;;;;;;;10.10;97.89;95353.06;5055203;28;20037;-78
2021/07/12 03:24:01;;;;;;;4.72;2.60;;;;;;;10.19;98.17;95356.69;5040755;28;20487;-77
2021/07/12 03:26:28;;;;;;;5.90;2.50;;;;;;;10.16;97.65;95351.22;5061159;28;20043;-78
2021/07/12 03:28:55;;;;;;;8.00;2.40;;;;;;;10.11;97.11;95354.63;5057413;28;20121;-78
2021/07/12 03:31:24;;;;;;;5.65;2.60;;;;;;;9.99;97.89;95362.03;5047868;28;20041;-77
2021/07/12 03:33:52;;;;;;;6.13;2.80;;;;;;;10.09;97.43;95359.38;5056923;28;20076;-77
2021/07/12 03:36:18;;;;;;;4.57;2.63;;;;;;;10.18;97.14;95360.38;5046400;28;20110;-77
2021/07/12 03:38:44;;;;;;;5.70;2.63;;;;;;;10.04;97.66;95359.38;5048497;28;20048;-78
2021/07/12 03:41:10;;;;;;;4.28;2.53;;;;;;;9.97;98.18;95356.25;5037084;28;20063;-78
2021/07/12 03:43:39;;;;;;;5.28;2.88;;;;;;;9.88;98.34;95356.03;5052700;28;20041;-78
2021/07/12 03:46:05;;;;;;;3.50;2.42;;;;;;;9.81;98.60;95361.59;5064292;28;20044;-77
2021/07/12 03:48:36;;;;;;;7.55;2.63;;;;;;;9.80;98.39;95357.38;5046966;28;20057;-78
2021/07/12 03:51:03;;;;;;;5.80;2.80;;;;;;;9.79;98.49;95361.06;5049963;28;20068;-77
2021/07/12 03:53:31;;;;;;;5.70;2.45;;;;;;;9.82;97.85;95357.88;5052052;28;20044;-77
2021/07/12 03:55:57;;;;;;;4.78;2.40;;;;;;;9.79;98.86;95353.16;5064457;28;20044;-78
2021/07/12 03:58:22;;;;;;;4.85;2.60;;;;;;;9.82;98.39;95350.00;5056766;28;20095;-78
2021/07/12 04:00:48;;;;;;;5.72;2.63;;;;;;;9.77;98.74;95357.91;5054418;28;20048;-77
2021/07/12 04:03:13;;;;;;;4.40;2.60;;;;;;;9.78;98.95;95356.84;5045602;28;20033;-77
2021/07/12 04:05:39;;;;;;;6.43;2.67;;;;;;;9.76;98.92;95345.81;5057233;28;20490;-78
2021/07/12 04:08:05;;;;;;;4.47;2.60;;;;;;;9.80;98.50;95352.13;5059651;28;20045;-78
2021/07/12 04:10:30;;;;;;;5.80;2.80;;;;;;;9.88;98.96;95351.56;5049005;28;20045;-78
2021/07/12 04:12:57;;;;;;;6.50;2.85;;;;;;;9.95;98.85;95346.00;5042343;28;20409;-78
2021/07/12 04:15:23;;;;;;;4.65;2.65;;;;;;;10.16;97.97;95341.47;5064110;28;20430;-78
2021/07/12 04:17:48;;;;;;;3.78;2.63;;;;;;;10.09;98.28;95340.19;5060232;28;20081;-78
2021/07/12 04:20:15;;;;;;;5.63;2.65;;;;;;;10.03;98.48;95331.53;5047799;28;20037;-78
2021/07/12 04:22:42;;;;;;;9.40;2.97;;;;;;;9.99;98.71;95330.50;5052015;28;20045;-77
2021/07/12 04:25:09;;;;;;;3.70;2.40;;;;;;;10.06;97.91;95336.25;5063867;28;20048;-78
2021/07/12 04:27:34;;;;;;;4.85;2.83;;;;;;;10.00;98.81;95326.81;5038204;28;20120;-78
2021/07/12 04:30:00;;;;;;;4.63;2.42;;;;;;;9.99;99.34;95330.50;5055062;28;20051;-78
2021/07/12 04:32:26;;;;;;;4.45;2.70;;;;;;;9.97;100.00;95327.34;5046866;28;20520;-78
2021/07/12 04:34:52;;;;;;;5.40;2.70;;;;;;;9.99;100.00;95331.28;5054385;28;20509;-77
2021/07/12 04:37:17;;;;;;;4.47;2.67;;;;;;;10.08;100.00;95320.97;5063430;28;20044;-78
2021/07/12 04:39:43;;;;;;;8.85;3.10;;;;;;;10.19;100.00;95329.63;5058542;28;20045;-78
2021/07/12 04:42:08;;;;;;;4.55;2.78;;;;;;;10.32;100.00;95330.88;5045534;28;20072;-78
2021/07/12 04:44:34;;;;;;;4.30;2.95;;;;;;;10.52;100.00;95322.88;5056533;28;20100;-78
2021/07/12 04:47:01;;;;;;;5.07;3.20;;;;;;;10.46;100.00;95323.97;5057919;28;20119;-77
2021/07/12 04:49:27;;;;;;;6.63;3.55;;;;;;;10.58;100.00;95327.03;5054558;28;20056;-77
2021/07/12 04:51:52;;;;;;;8.57;3.97;;;;;;;10.89;100.00;95326.06;5047394;28;20346;-78
2021/07/12 04:54:18;;;;;;;7.47;4.20;;;;;;;10.98;100.00;95318.34;5051005;28;20041;-78
2021/07/12 04:56:44;;;;;;;7.25;4.43;;;;;;;11.18;100.00;95326.06;5061031;28;20119;-78
2021/07/12 04:59:10;;;;;;;5.28;3.95;;;;;;;11.13;100.00;95320.84;5046307;28;20033;-78
2021/07/12 05:01:37;;;;;;;10.88;4.30;;;;;;;11.12;100.00;95308.75;5036926;28;20041;-78
2021/07/12 05:04:04;;;;;;;8.85;5.18;;;;;;;11.39;100.00;95312.69;5051608;28;20048;-78
2021/07/12 05:06:29;;;;;;;7.13;5.00;;;;;;;11.40;100.00;95314.28;5061674;28;20045;-78
2021/07/12 05:08:56;;;;;;;7.72;4.93;;;;;;;11.65;100.00;95315.06;5039730;28;20545;-78
2021/07/12 05:11:23;;;;;;;9.30;5.18;;;;;;;11.67;100.00;95313.72;5053751;28;20072;-78
2021/07/12 05:13:49;;;;;;;7.40;4.53;;;;;;;11.74;100.00;95311.53;5053336;28;20108;-78
2021/07/12 05:16:15;;;;;;;7.90;5.22;;;;;;;11.74;100.00;95319.44;5039718;28;20037;-78
2021/07/12 05:18:41;;;;;;;8.57;5.20;;;;;;;11.88;100.00;95314.28;5049571;28;20043;-78
2021/07/12 05:21:06;;;;;;;6.80;5.05;;;;;;;11.84;100.00;95313.28;5056199;28;20041;-78
2021/07/12 05:23:32;;;;;;;8.02;5.90;;;;;;;11.90;100.00;95312.16;5052807;28;20044;-79
2021/07/12 05:25:58;;;;;;;10.40;6.57;;;;;;;11.99;100.00;95316.84;5063203;28;20044;-78
2021/07/12 05:28:23;;;;;;;7.47;5.82;;;;;;;12.06;100.00;95317.28;5065377;28;20045;-78
2021/07/12 05:30:49;;;;;;;8.80;5.35;;;;;;;12.06;100.00;95319.91;5049526;28;20045;-78
2021/07/12 05:33:15;;;;;;;7.97;5.65;;;;;;;12.17;100.00;95316.06;5048343;28;20037;-78
2021/07/12 05:35:41;;;;;;;10.77;5.60;;;;;;;12.20;100.00;95315.50;5058680;28;20041;-78
2021/07/12 05:38:07;;;;;;;7.45;5.00;;;;;;;12.21;100.00;95317.09;5040059;28;20040;-78
2021/07/12 05:40:33;;;;;;;6.80;5.10;;;;;;;12.24;100.00;95324.44;5057176;28;20052;-78
2021/07/12 05:42:59;;;;;;;7.97;5.30;;;;;;;12.26;100.00;95319.63;5055514;28;20041;-78
2021/07/12 05:45:24;;;;;;;8.25;5.40;;;;;;;12.27;100.00;95326.50;5048272;28;20044;-78
2021/07/12 05:47:50;;;;;;;7.90;5.05;;;;;;;12.55;100.00;95321.34;5041733;28;20090;-77
2021/07/12 05:50:15;;;;;;;7.82;5.30;;;;;;;12.70;100.00;95327.47;5062156;28;20306;-78
2021/07/12 05:52:41;;;;;;;7.90;4.90;;;;;;;12.58;100.00;95320.78;5042354;28;20083;-78
2021/07/12 05:55:07;;;;;;;7.28;5.00;;;;;;;12.76;100.00;95334.28;5038904;28;20049;-78
2021/07/12 05:57:33;;;;;;;9.70;4.80;;;;;;;12.73;100.00;95332.19;5056777;28;20048;-78
2021/07/12 05:59:59;;;;;;;5.95;4.32;;;;;;;12.76;100.00;95315.78;5038400;28;20037;-78
2021/07/12 06:02:24;;;;;;;10.90;4.22;;;;;;;12.85;100.00;95311.41;5056663;28;20059;-78
2021/07/12 06:04:50;;;;;;;5.88;4.00;;;;;;;13.02;100.00;95312.75;5056649;28;20044;-78
2021/07/12 06:07:15;;;;;;;6.28;4.00;;;;;;;13.19;100.00;95297.13;5039760;28;20069;-78
2021/07/12 06:09:41;;;;;;;4.70;3.50;;;;;;;13.27;100.00;95304.38;5054702;28;20519;-78
2021/07/12 06:12:07;;;;;;;6.65;3.70;;;;;;;13.57;98.68;95312.88;5058329;28;20037;-78
2021/07/12 06:14:32;;;;;;;5.55;3.55;;;;;;;13.59;99.23;95300.16;5056020;28;20041;-78
2021/07/12 06:16:58;;;;;;;5.05;3.28;;;;;;;13.39;100.00;95301.31;5057140;28;20037;-78
2021/07/12 06:19:24;;;;;;;5.50;3.70;;;;;;;13.59;100.00;95304.63;5051617;28;20048;-78
2021/07/12 06:21:49;;;;;;;6.18;3.85;;;;;;;13.66;99.67;95300.53;5052108;28;20625;-79
2021/07/12 06:24:15;;;;;;;6.78;3.40;;;;;;;13.57;99.97;95301.53;5057614;28;20033;-79
2021/07/12 06:26:40;;;;;;;8.27;3.35;;;;;;;13.87;98.96;95289.56;5057129;28;20128;-78
2021/07/12 06:29:06;;;;;;;5.93;3.05;;;;;;;14.06;97.44;95286.03;5039742;28;20045;-78
2021/07/12 06:31:32;;;;;;;4.15;3.00;;;;;;;14.32;94.37;95276.47;5064289;28;20041;-77
2021/07/12 06:33:57;;;;;;;5.53;3.22;;;;;;;14.23;96.36;95280.88;5055204;28;20142;-78
2021/07/12 06:36:23;;;;;;;5.07;3.13;;;;;;;14.37;96.69;95276.34;5068466;28;20064;-78
2021/07/12 06:38:49;;;;;;;7.13;2.90;;;;;;;14.20;96.30;95278.84;5035175;28;20038;-78
2021/07/12 06:41:14;;;;;;;4.30;2.70;;;;;;;14.36;94.08;95280.06;5052723;28;20115;-77
2021/07/12 06:43:40;;;;;;;5.50;2.90;;;;;;;14.27;95.42;95284.50;5061363;28;20036;-78
2021/07/12 06:46:05;;;;;;;6.03;3.08;;;;;;;14.23;95.62;95283.53;5058399;28;20064;-78
2021/07/12 06:48:31;;;;;;;6.35;2.90;;;;;;;14.33;95.22;95275.34;5053343;28;20124;-78
2021/07/12 06:50:56;;;;;;;3.92;2.60;;;;;;;14.34;94.74;95279.59;5071469;28;20567;-78
2021/07/12 06:53:22;;;;;;;4.88;2.30;;;;;;;14.90;92.25;95279.41;5054604;28;20402;-78
2021/07/12 06:55:47;;;;;;;4.63;2.80;;;;;;;14.64;94.63;95274.72;5056520;28;20059;-78
2021/07/12 06:58:13;;;;;;;6.82;2.85;;;;;;;14.51;95.06;95270.19;5056126;28;20044;-78
2021/07/12 07:00:39;;;;;;;7.45;2.75;;;;;;;14.78;93.44;95273.88;5035033;28;20037;-78
2021/07/12 07:03:06;;;;;;;3.38;2.40;;;;;;;14.92;93.06;95274.56;5056127;28;20044;-78
2021/07/12 07:05:32;;;;;;;3.72;2.63;;;;;;;15.15;91.71;95277.22;5063120;28;20049;-78
2021/07/12 07:07:58;;;;;;;4.13;2.67;;;;;;;15.36;91.08;95272.94;5057526;28;20108;-78
2021/07/12 07:10:24;;;;;;;5.22;2.60;;;;;;;15.19;92.46;95267.56;5057823;28;20475;-78
2021/07/12 07:12:49;;;;;;;6.15;2.45;;;;;;;15.24;90.06;95259.47;5054264;28;20052;-78
2021/07/12 07:15:15;;;;;;;5.65;2.78;;;;;;;15.31;89.58;95254.50;5052019;28;20039;-80
2021/07/12 07:17:40;;;;;;;3.70;2.50;;;;;;;15.16;92.27;95252.28;5053039;28;20087;-79
2021/07/12 07:20:07;;;;;;;5.47;2.40;;;;;;;15.40;90.95;95252.69;5036445;28;20129;-82
2021/07/12 07:22:33;;;;;;;3.47;2.35;;;;;;;15.42;90.47;95260.34;5052239;28;21751;-79
2021/07/12 07:24:58;;;;;;;3.47;2.30;;;;;;;15.30;92.04;95258.28;5053886;28;20044;-78
2021/07/12 07:27:24;;;;;;;3.28;2.30;;;;;;;15.33;90.91;95251.53;5035361;28;20114;-79
2021/07/12 07:29:49;;;;;;;3.85;2.35;;;;;;;15.33;91.88;95247.03;5049013;28;20059;-78
2021/07/12 07:32:15;;;;;;;3.72;2.30;;;;;;;15.55;92.29;95253.38;5052149;28;20075;-78
2021/07/12 07:34:42;;;;;;;5.68;2.30;;;;;;;15.85;88.96;95245.69;5052918;28;20525;-78
2021/07/12 07:37:08;;;;;;;5.25;2.10;;;;;;;15.91;88.13;95245.22;5036473;28;20391;-77
2021/07/12 07:39:35;;;;;;;3.75;2.30;;;;;;;16.09;88.52;95251.34;5049270;28;20041;-82
2021/07/12 07:42:01;;;;;;;6.07;2.47;;;;;;;16.03;88.62;95252.59;5062371;28;20037;-79
2021/07/12 07:44:27;;;;;;;3.72;2.20;;;;;;;15.99;90.22;95251.63;5058439;28;20043;-78
2021/07/12 07:46:52;;;;;;;2.50;1.90;;;;;;;16.33;85.28;95249.31;5052545;28;20449;-77
2021/07/12 07:49:18;;;;;;;3.40;2.20;;;;;;;16.38;85.64;95251.84;5044628;28;20516;-76
2021/07/12 07:51:44;;;;;;;3.30;2.15;;;;;;;16.59;84.68;95251.97;5045798;28;20036;-82
2021/07/12 07:54:11;;;;;;;4.05;2.25;;;;;;;16.85;83.80;95237.88;5045058;28;20044;-78
2021/07/12 07:56:38;;;;;;;4.45;2.08;;;;;;;16.74;84.95;95238.19;5052094;28;20045;-79
2021/07/12 07:59:04;;;;;;;3.25;2.25;;;;;;;17.01;83.12;95236.31;5036658;28;20124;-79
2021/07/12 08:01:31;;;;;;;3.78;2.30;;;;;;;16.99;83.61;95233.19;5033542;28;20717;-78
2021/07/12 08:03:57;;;;;;;4.10;2.30;;;;;;;17.23;81.43;95234.53;5048904;28;20051;-78
2021/07/12 08:06:23;;;;;;;3.88;2.40;;;;;;;16.91;85.24;95232.09;5052920;28;20041;-78
2021/07/12 08:08:48;;;;;;;3.15;2.10;;;;;;;16.83;83.61;95229.44;5052672;28;20063;-78
2021/07/12 08:11:14;;;;;;;3.15;2.05;;;;;;;17.33;83.43;95231.50;5050719;28;20067;-79
2021/07/12 08:13:39;;;;;;;4.10;2.28;;;;;;;17.08;83.14;95220.66;5043922;28;20049;-81
2021/07/12 08:16:06;;;;;;;2.88;2.20;;;;;;;16.95;83.91;95222.41;5025719;28;20449;-80
2021/07/12 08:18:31;;;;;;;6.03;2.70;;;;;;;16.93;84.18;95207.88;5050918;28;20037;-79
2021/07/12 08:20:57;;;;;;;2.72;2.00;;;;;;;17.07;84.61;95205.78;5050905;28;20044;-79
2021/07/12 08:23:26;;;;;;;3.35;2.10;;;;;;;16.87;86.74;95209.13;5027934;28;20086;-79
2021/07/12 08:25:52;;;;;;;3.85;2.10;;;;;;;17.04;85.58;95208.28;5051582;28;20045;-78
2021/07/12 08:28:18;;;;;;;2.83;2.03;;;;;;;17.06;86.16;95201.56;5052323;28;20041;-81
2021/07/12 08:30:46;;;;;;;5.57;2.20;;;;;;;17.26;83.85;95199.31;5049012;28;20040;-78
2021/07/12 08:33:12;;;;;;;3.95;2.15;;;;;;;17.33;81.94;95199.59;5039426;28;20037;-82
2021/07/12 08:35:38;;;;;;;16.55;2.60;;;;;;;17.29;86.02;95209.31;5057322;28;20549;-80
2021/07/12 08:38:04;;;;;;;4.35;2.17;;;;;;;17.37;83.03;95202.38;5052853;28;20048;-80
2021/07/12 08:40:30;;;;;;;4.22;2.08;;;;;;;17.66;79.67;95196.31;5048568;28;20032;-81
2021/07/12 08:42:58;;;;;;;3.70;2.10;;;;;;;17.44;84.32;95190.16;5049191;28;20045;-80
2021/07/12 08:45:24;;;;;;;3.42;1.92;;;;;;;17.81;81.22;95193.09;5041491;28;20762;-80
2021/07/12 08:47:51;;;;;;;3.75;2.00;;;;;;;17.59;80.07;95182.72;5050013;28;20087;-82
2021/07/12 08:50:16;;;;;;;3.10;1.90;;;;;;;17.86;77.60;95175.34;5050993;28;20048;-78
2021/07/12 08:52:47;;;;;;;2.25;1.80;;;;;;;18.26;75.91;95174.91;5050578;28;20045;-78
2021/07/12 08:55:13;;;;;;;3.70;2.50;;;;;;;18.11;74.46;95169.06;5037893;28;20037;-77
2021/07/12 08:57:39;;;;;;;2.60;1.90;;;;;;;17.97;76.81;95163.25;5054901;28;20124;-80
2021/07/12 09:00:08;;;;;;;2.25;1.88;;;;;;;18.26;76.10;95165.06;5049630;28;20041;-80
2021/07/12 09:02:36;;;;;;;3.42;1.80;;;;;;;18.30;75.08;95154.50;5042226;28;20041;-77
2021/07/12 09:05:07;;;;;;;4.82;2.00;;;;;;;18.24;74.59;95158.50;5060289;28;20037;-78
2021/07/12 09:07:33;;;;;;;3.72;2.10;;;;;;;18.47;73.77;95165.00;5038277;28;20041;-78
2021/07/12 09:10:09;;;;;;;2.38;1.83;;;;;;;18.95;73.05;95162.03;5050490;28;20383;-78
2021/07/12 09:12:51;;;;;;;2.28;1.90;;;;;;;18.81;75.42;95157.78;5027148;28;20098;-78
2021/07/12 09:15:23;;;;;;;3.15;1.80;;;;;;;18.66;77.45;95156.53;5034624;28;20056;-78
2021/07/12 09:17:51;;;;;;;3.70;2.10;;;;;;;18.82;73.98;95159.34;5036858;28;20044;-79
2021/07/12 09:20:43;;;;;;;4.40;2.00;;;;;;;18.77;74.90;95151.53;5052672;28;20048;-78
2021/07/12 09:23:22;;;;;;;3.50;1.98;;;;;;;19.02;74.50;95151.59;5046043;28;20342;-79
2021/07/12 09:26:04;;;;;;;2.67;2.08;;;;;;;18.90;76.36;95143.59;5055205;28;20033;-79
2021/07/12 09:28:40;;;;;;;3.20;2.25;;;;;;;19.35;75.05;95142.72;5039132;28;20048;-78
2021/07/12 09:31:26;;;;;;;4.45;2.00;;;;;;;19.33;73.40;95147.63;5052935;28;20321;-79
2021/07/12 09:33:51;;;;;;;2.88;1.95;;;;;;;19.46;71.67;95151.84;5050651;28;20033;-78
2021/07/12 09:36:17;;;;;;;3.15;2.00;;;;;;;19.30;72.62;95153.63;5050411;28;20048;-79
2021/07/12 09:38:43;;;;;;;2.83;2.05;;;;;;;19.46;72.26;95138.50;5058736;28;20099;-79
2021/07/12 09:41:27;;;;;;;2.92;2.10;;;;;;;19.72;70.79;95148.81;5054655;28;20045;-77
2021/07/12 09:44:00;;;;;;;4.70;2.10;;;;;;;19.94;70.22;95148.69;5053825;28;20116;-78
2021/07/12 09:46:31;;;;;;;2.63;1.95;;;;;;;19.71;71.37;95149.13;5054314;28;20106;-77
2021/07/12 09:49:07;;;;;;;4.43;2.20;;;;;;;19.51;73.74;95140.94;5056076;28;20052;-79
2021/07/12 09:51:34;;;;;;;3.88;2.10;;;;;;;19.65;73.85;95150.50;5049288;28;20046;-78
2021/07/12 09:54:20;;;;;;;3.80;2.28;;;;;;;19.63;70.71;95142.06;5044142;28;20037;-79
2021/07/12 09:56:48;;;;;;;14.18;2.08;;;;;;;19.97;70.07;95135.44;5038334;28;20044;-80
2021/07/12 09:59:15;;;;;;;4.07;2.00;;;;;;;20.32;70.13;95144.78;5057894;28;20037;-78
2021/07/12 10:01:46;;;;;;;3.40;2.20;;;;;;;20.31;69.51;95143.22;5054062;28;20045;-79
2021/07/12 10:04:12;;;;;;;4.50;1.95;;;;;;;20.21;68.85;95142.59;5058003;28;20049;-78
2021/07/12 10:06:38;;;;;;;4.97;2.10;;;;;;;20.57;68.60;95140.88;5061846;28;20082;-78
2021/07/12 10:09:03;;;;;;;3.95;2.10;;;;;;;20.85;66.59;95134.72;5058925;28;20037;-77
2021/07/12 10:11:30;;;;;;;3.17;2.20;;;;;;;20.93;65.65;95131.09;5048863;28;20428;-80
2021/07/12 10:13:57;;;;;;;5.40;2.10;;;;;;;20.98;67.14;95126.63;5055156;28;20402;-79
2021/07/12 10:16:23;;;;;;;3.88;2.10;;;;;;;21.10;64.57;95118.50;5037689;28;20522;-78
2021/07/12 10:18:49;;;;;;;2.95;2.33;;;;;;;21.05;65.90;95116.09;5052798;28;20037;-83
2021/07/12 10:21:15;;;;;;;3.05;2.10;;;;;;;21.08;66.55;95115.41;5053034;28;20391;-81
2021/07/12 10:23:40;;;;;;;2.88;2.20;;;;;;;21.53;66.82;95114.13;5042548;28;20041;-81
2021/07/12 10:26:06;;;;;;;5.47;2.50;;;;;;;21.67;64.66;95112.91;5036997;28;20083;-81
2021/07/12 10:28:41;;;;;;;3.85;2.15;;;;;;;21.72;64.17;95112.63;5036693;28;20037;-81
2021/07/12 10:31:18;;;;;;;2.45;1.80;;;;;;;22.31;59.79;95103.47;5034137;28;20095;-78
2021/07/12 10:33:44;;;;;;;6.65;2.00;;;;;;;22.51;58.97;95105.38;5065034;28;20443;-78
2021/07/12 10:36:09;;;;;;;4.20;2.20;;;;;;;22.80;61.36;95106.63;5055926;28;20044;-79
2021/07/12 10:38:46;;;;;;;3.22;2.00;;;;;;;22.80;58.91;95096.69;5049087;28;20102;-82
2021/07/12 10:41:28;;;;;;;3.83;2.13;;;;;;;22.82;59.88;95099.00;5032701;28;20502;-80
2021/07/12 10:43:58;;;;;;;4.78;1.90;;;;;;;23.15;65.47;95094.94;5050949;28;20037;-84
2021/07/12 10:46:24;;;;;;;3.30;2.17;;;;;;;23.67;61.02;95090.69;5039304;28;20155;-82
2021/07/12 10:48:50;;;;;;;4.28;2.20;;;;;;;23.43;59.25;95099.19;5051905;28;20049;-84
2021/07/12 10:51:27;;;;;;;3.00;2.20;;;;;;;23.62;57.64;95085.63;5052268;28;20056;-84
2021/07/12 10:54:07;;;;;;;4.20;2.00;;;;;;;23.31;56.25;95084.81;5050913;28;20126;-81
2021/07/12 10:56:57;;;;;;;3.08;1.98;;;;;;;24.35;58.08;95077.31;5050942;28;20041;-79
2021/07/12 10:59:27;;;;;;;4.45;2.30;;;;;;;23.79;58.47;95078.94;5056941;28;20048;-83
2021/07/12 11:01:53;;;;;;;8.25;2.35;;;;;;;24.46;56.03;95077.41;5035084;28;20079;-80
2021/07/12 11:04:45;;;;;;;5.90;2.10;;;;;;;24.62;53.87;95068.34;5055559;28;20064;-80
2021/07/12 11:07:16;;;;;;;2.53;1.90;;;;;;;25.09;54.68;95074.88;5055802;28;20037;-81
2021/07/12 11:09:54;;;;;;;3.55;2.05;;;;;;;26.26;49.36;95067.03;5053416;28;20045;-81
2021/07/12 11:12:30;;;;;;;4.80;2.17;;;;;;;25.03;52.87;95066.38;5048846;28;20112;-80
2021/07/12 11:15:12;;;;;;;3.40;2.00;;;;;;;25.99;51.87;95051.13;5055507;28;20051;-78
2021/07/12 11:17:54;;;;;;;4.75;2.30;;;;;;;26.44;52.44;95056.28;5054909;28;20045;-79
2021/07/12 11:20:54;;;;;;;3.17;2.40;;;;;;;26.65;51.30;95055.53;5050003;28;20045;-79
2021/07/12 11:23:38;;;;;;;4.05;2.00;;;;;;;26.47;50.44;95054.75;5047823;28;20449;-79
2021/07/12 11:26:24;;;;;;;6.32;2.40;;;;;;;26.45;52.50;95047.81;5053959;28;20099;-79
2021/07/12 11:28:54;;;;;;;4.05;2.20;;;;;;;25.42;52.81;95057.81;5035302;28;20052;-79
2021/07/12 11:31:38;;;;;;;3.03;2.08;;;;;;;27.07;53.02;95054.00;5051591;28;20053;-79
2021/07/12 11:34:20;;;;;;;4.00;2.22;;;;;;;28.02;47.60;95049.19;5053737;28;20123;-78
2021/07/12 11:37:10;;;;;;;4.90;2.10;;;;;;;27.43;48.92;95048.56;5054452;28;20501;-81
2021/07/12 11:39:37;;;;;;;5.82;2.30;;;;;;;26.94;48.62;95033.97;5054232;28;20518;-77
2021/07/12 11:42:16;;;;;;;4.28;2.30;;;;;;;26.85;51.07;95037.06;5059109;28;20101;-82